Weather at Midden-Zeeland Airfield

Public forecast

Using degrees Celsius for public forecast. Weather courtesy of forecast.io.

Closest aviation weather report (METAR) to Midden-Zeeland Airfield

Closest report is Woensdrecht Air Base, 23.2 nm (42.9 km) E. Retrieved 2021/04/15 08:31 UTC (7 minutes ago):

EHWO 150831Z AUTO 04008KT 300V110 9999 FEW019 SCT025 07/01 Q1031 BLU NOSIG

Closest aviation forecast (TAF) to Midden-Zeeland Airfield

Closest forecast is Woensdrecht Air Base, 23.2 nm (42.9 km) E. Retrieved 2021/04/15 05:03 UTC (4 hours ago):

TAF EHWO 150421Z 1505/1517 VRB01KT 9999 FEW020 SCT030 PROB30 TEMPO 1505/1506 3000 BR MIFG BECMG 1506/1508 04005KT